Main page
METAR-TAF:

METAR-TAF

Airports :

Mexicali, Mexico

Mexicali International Airport

latitude: 32-37-50N, longitude: 115-14-30W, elevation: 22 m

Current weather observation

The report was made 1 hour and 34 minutes ago, at 07:40 UTC
Wind 9 kt from the West
Temperature 16°C
Humidity 55%
Pressure 1013 hPa
Visibility: 16.1 km
Clear sky

METAR: MMML 260740Z 28009KT 10SM SKC 16/07 A2991

Time: 03:14 (09:14 UTC)

Forecast

The report was made 4 hours and 47 minutes ago, at 04:27 UTC
Forecast valid from 26 at 06 UTC to 27 at 06 UTC
Wind 10 kt from the West
Visibility: 10 km
Clear sky
From 26 at 1800 UTC
Wind 12 kt from the West
Visibility: 10 km
Clear sky
From 27 at 0500 UTC
Wind 8 kt from the West/Southwest
Visibility: 10 km
Clear sky

TAF: MMML 260427Z 2606/2706 28010KT P6SM SKC FM261800 28012KT P6SM SKC FM270500 24008KT P6SM SKC

Weather observations and forecasts of more than 4000 airports (METAR and TAF reports).

The available stations are represented by yellow and red dots on the map.

Hover mouse over dot to see the name of the station.

Then click to see weather observations and forecasts.

To change the map : click on the green buttons with a black cross to zoom in, on the green button with a dash to zoom out, or on the green arrows for adjacent maps.


METAR-TAF: